createdAt,value
2018-04-18T00:00:20.151Z,0.00
2018-04-18T00:01:20.146Z,0.00
2018-04-18T00:02:20.024Z,0.00
2018-04-18T00:03:19.966Z,0.00
2018-04-18T00:04:19.901Z,0.00
2018-04-18T00:05:19.835Z,0.00
2018-04-18T00:06:19.777Z,0.00
2018-04-18T00:07:19.712Z,0.00
2018-04-18T00:08:19.650Z,0.00
2018-04-18T00:09:19.589Z,0.00
2018-04-18T00:10:19.552Z,0.00
2018-04-18T00:11:19.462Z,0.00
2018-04-18T00:12:19.394Z,0.00
2018-04-18T00:13:19.333Z,0.00
2018-04-18T00:14:19.266Z,0.00
2018-04-18T00:15:19.208Z,0.00
2018-04-18T00:16:19.146Z,0.00
2018-04-18T00:17:19.077Z,0.00
2018-04-18T00:18:19.014Z,0.00
2018-04-18T00:19:18.948Z,0.00
2018-04-18T00:20:18.890Z,0.00
2018-04-18T00:21:18.828Z,0.00
2018-04-18T00:22:18.764Z,0.00
2018-04-18T00:23:18.701Z,0.00
2018-04-18T00:24:18.636Z,0.00
2018-04-18T00:25:18.576Z,0.00
2018-04-18T00:26:18.508Z,0.00
2018-04-18T00:27:18.446Z,0.00
2018-04-18T00:28:18.383Z,0.00
2018-04-18T00:29:18.322Z,0.00
2018-04-18T00:30:18.254Z,0.00
2018-04-18T00:31:18.189Z,0.00
2018-04-18T00:32:18.136Z,0.00
2018-04-18T00:33:18.067Z,0.00
2018-04-18T00:34:18.003Z,0.00
2018-04-18T00:35:17.941Z,0.00
2018-04-18T00:36:17.877Z,0.00
2018-04-18T00:37:17.876Z,0.00
2018-04-18T00:38:17.747Z,0.00
2018-04-18T00:39:17.684Z,0.00
2018-04-18T00:40:17.622Z,0.00
2018-04-18T00:41:17.557Z,0.00
2018-04-18T00:42:17.496Z,0.00
2018-04-18T00:43:17.434Z,0.00
2018-04-18T00:44:17.365Z,0.00
2018-04-18T00:45:17.303Z,0.00
2018-04-18T00:46:17.241Z,0.00
2018-04-18T00:47:17.179Z,0.00
2018-04-18T00:48:17.111Z,0.00
2018-04-18T00:49:17.052Z,0.00
2018-04-18T00:50:16.985Z,0.00
2018-04-18T00:51:16.918Z,0.00
2018-04-18T00:52:16.861Z,0.00
2018-04-18T00:53:16.802Z,0.00
2018-04-18T00:54:16.732Z,0.00
2018-04-18T00:55:16.671Z,0.00
2018-04-18T00:56:16.604Z,0.00
2018-04-18T00:57:16.539Z,0.00
2018-04-18T00:58:16.479Z,0.00
2018-04-18T00:59:16.413Z,0.00
2018-04-18T01:00:16.357Z,0.00
2018-04-18T01:01:16.292Z,0.00
2018-04-18T01:02:16.223Z,0.00
2018-04-18T01:03:16.165Z,0.00
2018-04-18T01:04:16.098Z,0.00
2018-04-18T01:05:16.036Z,0.00
2018-04-18T01:06:15.977Z,0.00
2018-04-18T01:07:15.906Z,0.00
2018-04-18T01:08:15.843Z,0.00
2018-04-18T01:09:15.776Z,0.00
2018-04-18T01:10:15.717Z,0.00
2018-04-18T01:11:15.645Z,0.00
2018-04-18T01:12:15.605Z,0.00
2018-04-18T01:13:15.524Z,0.00
2018-04-18T01:14:15.478Z,0.00
2018-04-18T01:15:15.397Z,0.00
2018-04-18T01:16:15.328Z,0.00
2018-04-18T01:17:15.267Z,0.00
2018-04-18T01:18:15.207Z,0.00
2018-04-18T01:19:15.141Z,0.00
2018-04-18T01:20:15.098Z,0.00
2018-04-18T01:21:15.015Z,0.00
2018-04-18T01:22:14.964Z,0.00
2018-04-18T01:23:14.888Z,0.00
2018-04-18T01:24:14.833Z,0.00
2018-04-18T01:25:14.763Z,0.00
2018-04-18T01:26:14.693Z,0.00
2018-04-18T01:27:14.643Z,0.00
2018-04-18T01:28:14.565Z,0.00
2018-04-18T01:29:14.503Z,0.00
2018-04-18T01:30:14.438Z,0.00
2018-04-18T01:31:14.373Z,0.00
2018-04-18T01:32:14.312Z,0.00
2018-04-18T01:33:14.247Z,0.00
2018-04-18T01:34:14.184Z,0.00
2018-04-18T01:35:14.118Z,0.00
2018-04-18T01:36:14.058Z,0.00
2018-04-18T01:37:13.992Z,0.00
2018-04-18T01:38:13.930Z,0.00
2018-04-18T01:39:13.865Z,0.00
2018-04-18T01:40:13.797Z,0.00
2018-04-18T01:41:13.738Z,0.00
2018-04-18T01:42:13.669Z,0.00
2018-04-18T01:43:14.595Z,0.00
2018-04-18T01:44:13.550Z,0.00
2018-04-18T01:45:13.482Z,0.00
2018-04-18T01:46:13.419Z,0.00
2018-04-18T01:47:13.355Z,0.00
2018-04-18T01:48:13.289Z,0.00
2018-04-18T01:49:13.227Z,0.00
2018-04-18T01:50:13.165Z,0.00
2018-04-18T01:51:13.096Z,0.00
2018-04-18T01:52:13.051Z,0.00
2018-04-18T01:53:12.964Z,0.00
2018-04-18T01:54:12.901Z,0.00
2018-04-18T01:55:12.837Z,0.00
2018-04-18T01:56:12.774Z,0.00
2018-04-18T01:57:12.716Z,0.00
2018-04-18T01:58:12.649Z,0.00
2018-04-18T01:59:12.585Z,0.00
2018-04-18T02:00:12.521Z,0.00
2018-04-18T02:01:12.457Z,0.00
2018-04-18T02:02:12.388Z,0.00
2018-04-18T02:03:12.325Z,0.00
2018-04-18T02:04:12.272Z,0.00
2018-04-18T02:05:12.201Z,0.00
2018-04-18T02:06:12.135Z,0.00
2018-04-18T02:07:12.070Z,0.00
2018-04-18T02:08:12.008Z,0.00
2018-04-18T02:09:11.945Z,0.00
2018-04-18T02:10:11.890Z,0.00
2018-04-18T02:11:11.816Z,0.00
2018-04-18T02:12:11.749Z,0.00
2018-04-18T02:13:11.687Z,0.00
2018-04-18T02:14:11.620Z,0.00
2018-04-18T02:15:11.557Z,0.00
2018-04-18T02:16:11.494Z,0.00
2018-04-18T02:17:11.433Z,0.00
2018-04-18T02:18:11.370Z,0.00
2018-04-18T02:19:11.301Z,0.00
2018-04-18T02:20:11.236Z,0.00
2018-04-18T02:21:11.173Z,0.00
2018-04-18T02:22:11.113Z,0.00
2018-04-18T02:23:11.062Z,0.00
2018-04-18T02:24:10.980Z,0.00
2018-04-18T02:25:10.917Z,0.00
2018-04-18T02:26:10.853Z,0.00
2018-04-18T02:27:10.788Z,0.00
2018-04-18T02:28:10.733Z,0.00
2018-04-18T02:29:10.662Z,0.00
2018-04-18T02:30:10.597Z,0.00
2018-04-18T02:31:10.538Z,0.00
2018-04-18T02:32:10.465Z,0.00
2018-04-18T02:33:10.404Z,0.00
2018-04-18T02:34:10.338Z,0.00
2018-04-18T02:35:10.271Z,0.00
2018-04-18T02:36:10.208Z,0.00
2018-04-18T02:37:10.146Z,0.00
2018-04-18T02:38:10.096Z,0.00
2018-04-18T02:39:10.013Z,0.00
2018-04-18T02:40:09.954Z,0.00
2018-04-18T02:41:09.889Z,0.00
2018-04-18T02:42:09.825Z,0.00
2018-04-18T02:43:09.760Z,0.00
2018-04-18T02:44:09.693Z,0.00
2018-04-18T02:45:09.629Z,0.00
2018-04-18T02:46:09.569Z,0.00
2018-04-18T02:47:09.508Z,0.00
2018-04-18T02:48:09.443Z,0.00
2018-04-18T02:49:09.374Z,0.00
2018-04-18T02:50:09.309Z,0.00
2018-04-18T02:51:09.252Z,0.00
2018-04-18T02:52:09.179Z,0.00
2018-04-18T02:53:09.119Z,0.00
2018-04-18T02:54:09.050Z,0.00
2018-04-18T02:55:08.996Z,0.00
2018-04-18T02:56:08.923Z,0.00
2018-04-18T02:57:08.864Z,0.00
2018-04-18T02:58:08.788Z,0.00
2018-04-18T02:59:08.731Z,0.00
2018-04-18T03:00:08.666Z,0.00
2018-04-18T03:01:08.620Z,0.00
2018-04-18T03:02:08.536Z,0.00
2018-04-18T03:03:08.472Z,0.00
2018-04-18T03:04:08.404Z,0.00
2018-04-18T03:05:08.343Z,0.00
2018-04-18T03:06:08.286Z,0.00
2018-04-18T03:07:08.212Z,0.00
2018-04-18T03:08:08.148Z,0.00
2018-04-18T03:09:08.085Z,0.00
2018-04-18T03:10:08.020Z,0.00
2018-04-18T03:11:07.957Z,0.00
2018-04-18T03:12:07.893Z,0.00
2018-04-18T03:13:07.829Z,0.00
2018-04-18T03:14:07.782Z,0.00
2018-04-18T03:15:07.697Z,0.00
2018-04-18T03:16:07.633Z,0.00
2018-04-18T03:17:07.572Z,0.00
2018-04-18T03:18:07.502Z,0.00
2018-04-18T03:19:07.442Z,0.00
2018-04-18T03:20:07.379Z,0.00
2018-04-18T03:21:07.313Z,0.00
2018-04-18T03:22:07.248Z,0.00
2018-04-18T03:23:07.187Z,0.00
2018-04-18T03:24:07.117Z,0.00
2018-04-18T03:25:07.048Z,0.00
2018-04-18T03:26:14.628Z,0.00
2018-04-18T03:28:09.903Z,0.00
2018-04-18T03:29:08.835Z,0.00
2018-04-18T03:30:54.485Z,4.00
2018-04-18T03:32:03.018Z,4.00
2018-04-18T03:33:48.700Z,0.00
2018-04-18T03:34:48.592Z,4.00
2018-04-18T03:36:42.890Z,4.00
2018-04-18T03:37:42.790Z,4.00
2018-04-18T03:39:37.086Z,8.00
2018-04-18T03:40:36.988Z,8.00
2018-04-18T03:42:31.280Z,12.00
2018-04-18T03:43:31.182Z,16.00
2018-04-18T03:45:25.095Z,20.00
2018-04-18T03:46:24.388Z,24.00
2018-04-18T03:48:18.682Z,32.00
2018-04-18T03:49:18.585Z,36.00
2018-04-18T03:51:12.874Z,48.00
2018-04-18T03:52:12.780Z,56.00
2018-04-18T03:54:07.069Z,76.00
2018-04-18T03:55:06.974Z,84.00
2018-04-18T03:57:01.322Z,104.00
2018-04-18T03:58:01.180Z,120.00
2018-04-18T03:59:55.471Z,144.00
2018-04-18T04:00:55.375Z,160.00
2018-04-18T04:02:48.682Z,192.00
2018-04-18T04:03:48.589Z,212.00
2018-04-18T04:05:43.186Z,256.00
2018-04-18T04:06:43.077Z,284.00
2018-04-18T04:08:36.382Z,340.00
2018-04-18T04:09:36.288Z,372.00
2018-04-18T04:11:30.575Z,428.00
2018-04-18T04:12:30.480Z,456.00
2018-04-18T04:14:24.786Z,512.00
2018-04-18T04:15:24.676Z,540.00
2018-04-18T04:17:17.982Z,600.00
2018-04-18T04:18:17.889Z,636.00
2018-04-18T04:20:12.179Z,696.00
2018-04-18T04:21:12.083Z,736.00
2018-04-18T04:23:06.377Z,804.00
2018-04-18T04:24:06.284Z,840.00
2018-04-18T04:26:00.577Z,916.00
2018-04-18T04:27:00.481Z,952.00
2018-04-18T04:28:54.782Z,1032.00
2018-04-18T04:29:54.686Z,1076.00
2018-04-18T04:31:48.988Z,1148.00
2018-04-18T04:32:48.885Z,1188.00
2018-04-18T04:34:43.193Z,1276.00
2018-04-18T04:35:43.083Z,1320.00
2018-04-18T04:37:37.382Z,1396.00
2018-04-18T04:38:37.284Z,1432.00
2018-04-18T04:40:31.589Z,1488.00
2018-04-18T04:41:31.477Z,1516.00
2018-04-18T04:42:31.419Z,1552.00
2018-04-18T04:43:31.360Z,1584.00
2018-04-18T04:44:31.291Z,1608.00
2018-04-18T04:45:31.221Z,1624.00
2018-04-18T04:46:31.155Z,1644.00
2018-04-18T04:47:31.086Z,1668.00
2018-04-18T04:48:31.027Z,1708.00
2018-04-18T04:49:30.964Z,1756.00
2018-04-18T04:50:30.898Z,1824.00
2018-04-18T04:51:30.844Z,1900.00
2018-04-18T04:52:30.766Z,1980.00
2018-04-18T04:53:30.701Z,2040.00
2018-04-18T04:54:30.638Z,2080.00
2018-04-18T04:55:30.579Z,2116.00
2018-04-18T04:56:30.517Z,2148.00
2018-04-18T04:57:30.443Z,2176.00
2018-04-18T04:58:30.378Z,2196.00
2018-04-18T04:59:30.313Z,2220.00
2018-04-18T05:00:30.251Z,2240.00
2018-04-18T05:01:30.187Z,2268.00
2018-04-18T05:02:30.173Z,2292.00
2018-04-18T05:03:30.063Z,2316.00
2018-04-18T05:04:29.994Z,2328.00
2018-04-18T05:05:29.936Z,2348.00
2018-04-18T05:06:29.862Z,2388.00
2018-04-18T05:07:29.794Z,2456.00
2018-04-18T05:08:29.734Z,2516.00
2018-04-18T05:09:29.674Z,2564.00
2018-04-18T05:10:29.608Z,2604.00
2018-04-18T05:11:29.534Z,2636.00
2018-04-18T05:12:29.475Z,2652.00
2018-04-18T05:13:29.414Z,2704.00
2018-04-18T05:14:29.347Z,2756.00
2018-04-18T05:15:29.281Z,2824.00
2018-04-18T05:16:29.218Z,2872.00
2018-04-18T05:17:29.162Z,2916.00
2018-04-18T05:18:29.091Z,2948.00
2018-04-18T05:19:29.042Z,2984.00
2018-04-18T05:20:28.960Z,3092.00
2018-04-18T05:21:28.900Z,3176.00
2018-04-18T05:22:28.829Z,3220.00
2018-04-18T05:23:28.770Z,3260.00
2018-04-18T05:24:28.709Z,3308.00
2018-04-18T05:25:28.639Z,3356.00
2018-04-18T05:26:28.574Z,3408.00
2018-04-18T05:27:28.511Z,3440.00
2018-04-18T05:28:28.447Z,3480.00
2018-04-18T05:29:28.383Z,3512.00
2018-04-18T05:30:28.317Z,3540.00
2018-04-18T05:31:28.250Z,3572.00
2018-04-18T05:32:28.187Z,3576.00
2018-04-18T05:33:28.132Z,3604.00
2018-04-18T05:34:28.060Z,3620.00
2018-04-18T05:35:28.002Z,3632.00
2018-04-18T05:36:27.933Z,3616.00
2018-04-18T05:37:27.869Z,3464.00
2018-04-18T05:38:27.803Z,3440.00
2018-04-18T05:39:27.738Z,3744.00
2018-04-18T05:40:27.674Z,3808.00
2018-04-18T05:41:27.614Z,3812.00
2018-04-18T05:42:27.546Z,3816.00
2018-04-18T05:43:27.482Z,3888.00
2018-04-18T05:44:27.419Z,3932.00
2018-04-18T05:45:27.355Z,3968.00
2018-04-18T05:46:27.293Z,3996.00
2018-04-18T05:47:27.232Z,4024.00
2018-04-18T05:48:27.162Z,4060.00
2018-04-18T05:49:27.098Z,4092.00
2018-04-18T05:50:27.036Z,4124.00
2018-04-18T05:51:26.970Z,4136.00
2018-04-18T05:52:26.907Z,4176.00
2018-04-18T05:53:26.844Z,4208.00
2018-04-18T05:54:26.785Z,4240.00
2018-04-18T05:55:26.716Z,4276.00
2018-04-18T05:56:26.658Z,4304.00
2018-04-18T05:57:26.588Z,4336.00
2018-04-18T05:58:26.523Z,4372.00
2018-04-18T05:59:26.463Z,4396.00
2018-04-18T06:00:26.399Z,4420.00
2018-04-18T06:01:26.335Z,4456.00
2018-04-18T06:02:26.270Z,4472.00
2018-04-18T06:03:26.208Z,4500.00
2018-04-18T06:04:26.149Z,4532.00
2018-04-18T06:05:26.080Z,4560.00
2018-04-18T06:06:26.025Z,4540.00
2018-04-18T06:07:25.952Z,4600.00
2018-04-18T06:08:25.890Z,4656.00
2018-04-18T06:09:25.822Z,4680.00
2018-04-18T06:10:25.762Z,4712.00
2018-04-18T06:11:25.698Z,4740.00
2018-04-18T06:12:25.635Z,4768.00
2018-04-18T06:13:25.572Z,4788.00
2018-04-18T06:14:25.522Z,4816.00
2018-04-18T06:15:25.443Z,4820.00
2018-04-18T06:16:25.381Z,4872.00
2018-04-18T06:17:25.319Z,4900.00
2018-04-18T06:18:25.270Z,4928.00
2018-04-18T06:19:25.242Z,4960.00
2018-04-18T06:20:25.128Z,4992.00
2018-04-18T06:21:25.071Z,5012.00
2018-04-18T06:22:25.003Z,5036.00
2018-04-18T06:23:24.945Z,5056.00
2018-04-18T06:24:24.873Z,5076.00
2018-04-18T06:25:24.811Z,5092.00
2018-04-18T06:26:24.748Z,5116.00
2018-04-18T06:27:24.685Z,5140.00
2018-04-18T06:28:24.624Z,5152.00
2018-04-18T06:29:24.565Z,5176.00
2018-04-18T06:30:24.506Z,5192.00
2018-04-18T06:31:24.437Z,5216.00
2018-04-18T06:32:24.370Z,5232.00
2018-04-18T06:33:24.311Z,5256.00
2018-04-18T06:34:24.246Z,5276.00
2018-04-18T06:35:24.178Z,5184.00
2018-04-18T06:36:24.121Z,5328.00
2018-04-18T06:37:24.058Z,5340.00
2018-04-18T06:38:23.994Z,5364.00
2018-04-18T06:39:23.935Z,5384.00
2018-04-18T06:40:23.866Z,5412.00
2018-04-18T06:41:23.804Z,5424.00
2018-04-18T06:42:23.743Z,5440.00
2018-04-18T06:43:23.680Z,5432.00
2018-04-18T06:44:23.619Z,5444.00
2018-04-18T06:45:23.557Z,5476.00
2018-04-18T06:46:23.491Z,5520.00
2018-04-18T06:47:23.509Z,5544.00
2018-04-18T06:48:23.366Z,5568.00
2018-04-18T06:49:23.309Z,5588.00
2018-04-18T06:50:23.244Z,5604.00
2018-04-18T06:51:23.181Z,5628.00
2018-04-18T06:52:23.118Z,5652.00
2018-04-18T06:53:23.063Z,5668.00
2018-04-18T06:54:22.993Z,5684.00
2018-04-18T06:55:22.932Z,5692.00
2018-04-18T06:56:22.873Z,5696.00
2018-04-18T06:57:22.830Z,5732.00
2018-04-18T06:58:22.785Z,5744.00
2018-04-18T06:59:22.691Z,5752.00
2018-04-18T07:00:22.621Z,5764.00
2018-04-18T07:01:22.566Z,5788.00
2018-04-18T07:02:22.498Z,5796.00
2018-04-18T07:03:22.467Z,5792.00
2018-04-18T07:04:22.380Z,5796.00
2018-04-18T07:05:22.312Z,5808.00
2018-04-18T07:06:22.251Z,5824.00
2018-04-18T07:07:22.194Z,5860.00
2018-04-18T07:08:22.129Z,5904.00
2018-04-18T07:09:22.070Z,5920.00
2018-04-18T07:10:22.005Z,5928.00
2018-04-18T07:11:21.945Z,5956.00
2018-04-18T07:12:21.882Z,5964.00
2018-04-18T07:13:21.829Z,5980.00
2018-04-18T07:14:21.759Z,5996.00
2018-04-18T07:15:21.696Z,6008.00
2018-04-18T07:16:21.635Z,6028.00
2018-04-18T07:17:21.577Z,6040.00
2018-04-18T07:18:21.518Z,6052.00
2018-04-18T07:19:21.449Z,6076.00
2018-04-18T07:20:21.387Z,6068.00
2018-04-18T07:21:21.354Z,6096.00
2018-04-18T07:22:21.274Z,6104.00
2018-04-18T07:23:21.204Z,6120.00
2018-04-18T07:24:21.143Z,6128.00
2018-04-18T07:25:21.079Z,6132.00
2018-04-18T07:26:21.026Z,6160.00
2018-04-18T07:27:20.960Z,6180.00
2018-04-18T07:28:20.897Z,6200.00
2018-04-18T07:29:20.840Z,6200.00
2018-04-18T07:30:20.784Z,6216.00
2018-04-18T07:31:20.719Z,6220.00
2018-04-18T07:32:20.658Z,6240.00
2018-04-18T07:33:20.594Z,6252.00
2018-04-18T07:34:20.566Z,6260.00
2018-04-18T07:35:20.472Z,6292.00
2018-04-18T07:36:20.414Z,6312.00
2018-04-18T07:37:20.353Z,6328.00
2018-04-18T07:38:20.295Z,6356.00
2018-04-18T07:39:20.234Z,6372.00
2018-04-18T07:40:20.178Z,6388.00
2018-04-18T07:41:20.110Z,6400.00
2018-04-18T07:42:20.057Z,6412.00
2018-04-18T07:43:19.990Z,6432.00
2018-04-18T07:44:19.925Z,6404.00
2018-04-18T07:45:19.863Z,6420.00
2018-04-18T07:46:19.803Z,6444.00
2018-04-18T07:47:19.741Z,6464.00
2018-04-18T07:48:19.681Z,6476.00
2018-04-18T07:49:19.622Z,6488.00
2018-04-18T07:50:19.562Z,6512.00
2018-04-18T07:51:19.499Z,6512.00
2018-04-18T07:52:19.444Z,6532.00
2018-04-18T07:53:19.380Z,6544.00
2018-04-18T07:54:19.323Z,6564.00
2018-04-18T07:55:19.269Z,6580.00
2018-04-18T07:56:19.206Z,6592.00
2018-04-18T07:57:19.139Z,6600.00
2018-04-18T07:58:19.076Z,6604.00
2018-04-18T07:59:19.015Z,6624.00
2018-04-18T08:00:18.955Z,6644.00
2018-04-18T08:01:18.898Z,6672.00
2018-04-18T08:02:18.838Z,6688.00
2018-04-18T08:03:25.705Z,6692.00
2018-04-18T08:04:18.714Z,6696.00
2018-04-18T08:05:18.872Z,6700.00
2018-04-18T08:06:18.593Z,6716.00
2018-04-18T08:07:18.536Z,6740.00
2018-04-18T08:08:18.473Z,6752.00
2018-04-18T08:09:18.413Z,6784.00
2018-04-18T08:10:18.362Z,6804.00
2018-04-18T08:11:18.288Z,6824.00
2018-04-18T08:12:18.231Z,6840.00
2018-04-18T08:13:18.177Z,6852.00
2018-04-18T08:14:18.112Z,6856.00
2018-04-18T08:15:18.119Z,6880.00
2018-04-18T08:16:17.991Z,6892.00
2018-04-18T08:17:17.928Z,6876.00
2018-04-18T08:18:17.896Z,6904.00
2018-04-18T08:19:17.887Z,6928.00
2018-04-18T08:20:18.249Z,6948.00
2018-04-18T08:21:17.717Z,6956.00
2018-04-18T08:22:17.632Z,6996.00
2018-04-18T08:23:17.591Z,7016.00
2018-04-18T08:24:17.510Z,7020.00
2018-04-18T08:25:17.480Z,7040.00
2018-04-18T08:26:17.394Z,7052.00
2018-04-18T08:27:17.331Z,7076.00
2018-04-18T08:28:17.272Z,7104.00
2018-04-18T08:29:17.225Z,7132.00
2018-04-18T08:30:17.151Z,7160.00
2018-04-18T08:31:17.091Z,7180.00
2018-04-18T08:32:17.031Z,7204.00
2018-04-18T08:33:16.977Z,7256.00
2018-04-18T08:34:16.915Z,7284.00
2018-04-18T08:35:16.858Z,7316.00
2018-04-18T08:36:16.794Z,7348.00
2018-04-18T08:37:16.730Z,7360.00
2018-04-18T08:38:16.672Z,7384.00
2018-04-18T08:39:16.639Z,7408.00
2018-04-18T08:40:16.566Z,7428.00
2018-04-18T08:41:16.499Z,7452.00
2018-04-18T08:42:16.433Z,7468.00
2018-04-18T08:43:16.388Z,7484.00
2018-04-18T08:44:16.314Z,7492.00
2018-04-18T08:45:16.256Z,7492.00
2018-04-18T08:46:16.198Z,7512.00
2018-04-18T08:47:16.136Z,7536.00
2018-04-18T08:48:16.080Z,7548.00
2018-04-18T08:49:16.039Z,7560.00
2018-04-18T08:50:15.959Z,7584.00
2018-04-18T08:51:15.899Z,7600.00
2018-04-18T08:52:15.867Z,7612.00
2018-04-18T08:53:15.787Z,7608.00
2018-04-18T08:54:15.727Z,7612.00
2018-04-18T08:55:15.658Z,7620.00
2018-04-18T08:56:15.596Z,7620.00
2018-04-18T08:57:15.552Z,7632.00
2018-04-18T08:58:15.491Z,7648.00
2018-04-18T08:59:15.419Z,7672.00
2018-04-18T09:00:22.222Z,7692.00
2018-04-18T09:01:15.303Z,7712.00
2018-04-18T09:02:15.249Z,7736.00
2018-04-18T09:03:15.181Z,7756.00
2018-04-18T09:04:15.146Z,7780.00
2018-04-18T09:05:15.068Z,7812.00
2018-04-18T09:06:15.006Z,7832.00
2018-04-18T09:07:14.959Z,7872.00
2018-04-18T09:08:14.895Z,7904.00
2018-04-18T09:09:14.827Z,7900.00
2018-04-18T09:10:14.770Z,7904.00
2018-04-18T09:11:14.711Z,7912.00
2018-04-18T09:12:14.774Z,7912.00
2018-04-18T09:13:14.611Z,7928.00
2018-04-18T09:14:14.535Z,7968.00
2018-04-18T09:15:14.478Z,8020.00
2018-04-18T09:16:14.417Z,8048.00
2018-04-18T09:17:14.358Z,8076.00
2018-04-18T09:18:14.301Z,8096.00
2018-04-18T09:19:14.243Z,8128.00
2018-04-18T09:20:14.183Z,8152.00
2018-04-18T09:21:14.125Z,8188.00
2018-04-18T09:22:14.063Z,8224.00
2018-04-18T09:23:14.010Z,8236.00
2018-04-18T09:24:13.946Z,8248.00
2018-04-18T09:25:13.889Z,8276.00
2018-04-18T09:26:13.830Z,8300.00
2018-04-18T09:27:13.771Z,8336.00
2018-04-18T09:28:13.714Z,8368.00
2018-04-18T09:29:13.659Z,8380.00
2018-04-18T09:30:13.596Z,8396.00
2018-04-18T09:31:13.538Z,8404.00
2018-04-18T09:32:13.481Z,8424.00
2018-04-18T09:33:13.420Z,8412.00
2018-04-18T09:34:13.359Z,8436.00
2018-04-18T09:35:13.299Z,8468.00
2018-04-18T09:36:13.244Z,8484.00
2018-04-18T09:37:13.183Z,8496.00
2018-04-18T09:38:13.129Z,8496.00
2018-04-18T09:39:13.074Z,8520.00
2018-04-18T09:40:13.010Z,8536.00
2018-04-18T09:41:12.949Z,8568.00
2018-04-18T09:42:12.890Z,8592.00
2018-04-18T09:43:12.832Z,8600.00
2018-04-18T09:44:12.799Z,8604.00
2018-04-18T09:45:12.714Z,8620.00
2018-04-18T09:46:12.687Z,8596.00
2018-04-18T09:47:12.624Z,8568.00
2018-04-18T09:48:12.543Z,8592.00
2018-04-18T09:49:12.482Z,8652.00
2018-04-18T09:50:12.426Z,8692.00
2018-04-18T09:51:12.369Z,8716.00
2018-04-18T09:52:12.309Z,8740.00
2018-04-18T09:53:12.244Z,8764.00
2018-04-18T09:54:12.189Z,8752.00
2018-04-18T09:55:12.128Z,8756.00
2018-04-18T09:56:12.077Z,8792.00
2018-04-18T09:57:12.015Z,8808.00
2018-04-18T09:58:11.959Z,8860.00
2018-04-18T09:59:11.897Z,8892.00
2018-04-18T10:00:11.841Z,8904.00
2018-04-18T10:01:11.789Z,8908.00
2018-04-18T10:02:11.722Z,8920.00
2018-04-18T10:03:11.667Z,8980.00
2018-04-18T10:04:11.606Z,9020.00
2018-04-18T10:05:11.547Z,9024.00
2018-04-18T10:06:11.486Z,9040.00
2018-04-18T10:07:11.432Z,9104.00
2018-04-18T10:08:11.370Z,9196.00
2018-04-18T10:09:11.326Z,9312.00
2018-04-18T10:10:11.256Z,9408.00
2018-04-18T10:11:11.198Z,9452.00
2018-04-18T10:12:11.140Z,9488.00
2018-04-18T10:13:11.088Z,9552.00
2018-04-18T10:14:11.024Z,9580.00
2018-04-18T10:15:10.964Z,9656.00
2018-04-18T10:16:10.945Z,9680.00
2018-04-18T10:17:10.853Z,9696.00
2018-04-18T10:18:10.793Z,9712.00
2018-04-18T10:19:10.737Z,9820.00
2018-04-18T10:20:10.678Z,9916.00
2018-04-18T10:21:10.619Z,9984.00
2018-04-18T10:22:10.570Z,10032.00
2018-04-18T10:23:10.499Z,10132.00
2018-04-18T10:24:10.442Z,10268.00
2018-04-18T10:25:10.385Z,10392.00
2018-04-18T10:26:10.334Z,10492.00
2018-04-18T10:27:10.265Z,10524.00
2018-04-18T10:28:10.213Z,10660.00
2018-04-18T10:29:10.151Z,10784.00
2018-04-18T10:30:10.093Z,10888.00
2018-04-18T10:31:10.037Z,10976.00
2018-04-18T10:32:24.758Z,11036.00
2018-04-18T10:33:09.946Z,11040.00
2018-04-18T10:34:09.863Z,11008.00
2018-04-18T10:35:09.816Z,11008.00
2018-04-18T10:36:09.758Z,11064.00
2018-04-18T10:37:09.692Z,11096.00
2018-04-18T10:38:09.666Z,11120.00
2018-04-18T10:39:09.570Z,11168.00
2018-04-18T10:40:09.513Z,11248.00
2018-04-18T10:41:09.461Z,11280.00
2018-04-18T10:42:09.406Z,11304.00
2018-04-18T10:43:09.339Z,11328.00
2018-04-18T10:44:09.284Z,11364.00
2018-04-18T10:45:09.230Z,11368.00
2018-04-18T10:46:09.172Z,11356.00
2018-04-18T10:47:09.112Z,11348.00
2018-04-18T10:56:53.101Z,12276.00
2018-04-18T10:57:53.008Z,12412.00
2018-04-18T10:59:46.335Z,12716.00
2018-04-18T11:00:46.236Z,12880.00
2018-04-18T11:02:40.786Z,13272.00
2018-04-18T11:03:40.612Z,13520.00
2018-04-18T11:05:33.964Z,14052.00
2018-04-18T11:06:33.847Z,14412.00
2018-04-18T11:08:27.191Z,46240.00
2018-04-18T11:09:27.096Z,87904.00
2018-04-18T11:11:20.414Z,94368.00
2018-04-18T11:12:20.321Z,95136.00
2018-04-18T11:14:13.642Z,100288.00
2018-04-18T11:15:13.559Z,102752.00
2018-04-18T11:17:06.883Z,92064.00
2018-04-18T11:18:06.789Z,84768.00
2018-04-18T11:20:00.182Z,91072.00
2018-04-18T11:21:00.082Z,89056.00
2018-04-18T11:22:54.416Z,86048.00
2018-04-18T11:23:54.332Z,85824.00
2018-04-18T11:25:47.660Z,79744.00
2018-04-18T11:26:47.568Z,85056.00
2018-04-18T11:28:40.903Z,90656.00
2018-04-18T11:29:40.821Z,90976.00
2018-04-18T11:31:35.177Z,87232.00
2018-04-18T11:32:35.090Z,84832.00
2018-04-18T11:34:29.405Z,87264.00
2018-04-18T11:35:29.326Z,86048.00
2018-04-18T11:37:23.640Z,88512.00
2018-04-18T11:38:23.558Z,89408.00
2018-04-18T11:40:17.886Z,88864.00
2018-04-18T11:41:17.798Z,89312.00
2018-04-18T11:43:11.139Z,77408.00
2018-04-18T11:44:11.093Z,80160.00
2018-04-18T11:46:05.393Z,85952.00
2018-04-18T11:47:05.303Z,95648.00
2018-04-18T11:48:59.636Z,92032.00
2018-04-18T11:49:59.570Z,82624.00
2018-04-18T11:51:52.920Z,80288.00
2018-04-18T11:52:52.833Z,89024.00
2018-04-18T11:54:46.166Z,90816.00
2018-04-18T11:55:46.090Z,87296.00
2018-04-18T11:57:39.482Z,91872.00
2018-04-18T11:58:39.348Z,88352.00
2018-04-18T12:00:33.690Z,80288.00
2018-04-18T12:01:33.611Z,71232.00
2018-04-18T12:03:26.947Z,92032.00
2018-04-18T12:04:26.870Z,82560.00
2018-04-18T12:06:21.259Z,75392.00
2018-04-18T12:07:21.166Z,80992.00
2018-04-18T12:09:14.538Z,80480.00
2018-04-18T12:10:14.431Z,81120.00
2018-04-18T12:12:08.760Z,86368.00
2018-04-18T12:13:08.688Z,84096.00
2018-04-18T12:15:02.022Z,79488.00
2018-04-18T12:16:01.956Z,81376.00
2018-04-18T12:17:56.332Z,84160.00
2018-04-18T12:18:56.252Z,90528.00
2018-04-18T12:20:50.575Z,101600.00
2018-04-18T12:21:50.503Z,100288.00
2018-04-18T12:23:43.858Z,96096.00
2018-04-18T12:24:43.770Z,96448.00
2018-04-18T12:26:38.130Z,91520.00
2018-04-18T12:27:38.019Z,88320.00
2018-04-18T12:29:32.379Z,88672.00
2018-04-18T12:30:32.300Z,90368.00
2018-04-18T12:32:26.635Z,97504.00
2018-04-18T12:33:26.561Z,99232.00
2018-04-18T12:35:20.900Z,94368.00
2018-04-18T12:36:20.820Z,91584.00
2018-04-18T12:38:14.170Z,91680.00
2018-04-18T12:39:14.092Z,93856.00
2018-04-18T12:41:08.448Z,88800.00
2018-04-18T12:42:08.359Z,95136.00
2018-04-18T12:44:01.710Z,90784.00
2018-04-18T12:45:01.638Z,80928.00
2018-04-18T12:46:55.979Z,84064.00
2018-04-18T12:47:55.906Z,88992.00
2018-04-18T12:49:50.501Z,87808.00
2018-04-18T12:50:50.427Z,80992.00
2018-04-18T12:52:43.898Z,85536.00
2018-04-18T12:53:43.708Z,94784.00
2018-04-18T12:55:37.058Z,91552.00
2018-04-18T12:56:36.986Z,88224.00
2018-04-18T12:58:31.312Z,85728.00
2018-04-18T12:59:31.248Z,87872.00
2018-04-18T13:01:24.593Z,96256.00
2018-04-18T13:02:24.524Z,93568.00
2018-04-18T13:04:18.871Z,92160.00
2018-04-18T13:05:18.798Z,94304.00
2018-04-18T13:07:13.151Z,99584.00
2018-04-18T13:08:13.070Z,98464.00
2018-04-18T13:10:06.415Z,93600.00
2018-04-18T13:11:06.350Z,98688.00
2018-04-18T13:12:59.728Z,93088.00
2018-04-18T13:13:59.636Z,87872.00
2018-04-18T13:15:54.000Z,90624.00
2018-04-18T13:16:53.909Z,92000.00
2018-04-18T13:18:48.257Z,82432.00
2018-04-18T13:19:48.192Z,78528.00
2018-04-18T13:21:41.539Z,83232.00
2018-04-18T13:22:41.477Z,86368.00
2018-04-18T13:24:34.827Z,77408.00
2018-04-18T13:25:34.771Z,80544.00
2018-04-18T13:27:28.107Z,85376.00
2018-04-18T13:28:28.036Z,82304.00
2018-04-18T13:29:27.988Z,77152.00
2018-04-18T13:30:27.954Z,77056.00
2018-04-18T13:31:27.917Z,80224.00
2018-04-18T13:32:27.875Z,80128.00
2018-04-18T13:33:27.833Z,76160.00
2018-04-18T13:34:27.816Z,72896.00
2018-04-18T13:35:27.752Z,72480.00
2018-04-18T13:36:27.711Z,73056.00
2018-04-18T13:37:27.675Z,70624.00
2018-04-18T13:38:27.628Z,64704.00
2018-04-18T13:39:27.590Z,64128.00
2018-04-18T13:40:27.553Z,69152.00